sensor_id;sensor_type;location;lat;lon;timestamp;temperature;humidity
60033;DHT22;45905;50.570;10.428;2023-05-10T00:01:29;16.30;60.70
60033;DHT22;45905;50.570;10.428;2023-05-10T00:03:56;15.50;60.50
60033;DHT22;45905;50.570;10.428;2023-05-10T00:08:51;15.60;67.30
60033;DHT22;45905;50.570;10.428;2023-05-10T00:18:43;15.40;62.50
60033;DHT22;45905;50.570;10.428;2023-05-10T00:21:10;15.70;62.10
60033;DHT22;45905;50.570;10.428;2023-05-10T00:23:38;15.90;62.80
60033;DHT22;45905;50.570;10.428;2023-05-10T00:28:33;15.80;65.90
60033;DHT22;45905;50.570;10.428;2023-05-10T00:31:02;15.70;70.00
60033;DHT22;45905;50.570;10.428;2023-05-10T00:38:24;15.90;72.40
60033;DHT22;45905;50.570;10.428;2023-05-10T00:40:52;16.00;71.80
60033;DHT22;45905;50.570;10.428;2023-05-10T00:43:26;15.40;66.00
60033;DHT22;45905;50.570;10.428;2023-05-10T00:48:21;15.40;65.40
60033;DHT22;45905;50.570;10.428;2023-05-10T00:55:45;15.80;69.40
60033;DHT22;45905;50.570;10.428;2023-05-10T00:58:13;15.10;67.40
60033;DHT22;45905;50.570;10.428;2023-05-10T01:00:41;15.30;68.40
60033;DHT22;45905;50.570;10.428;2023-05-10T01:03:11;15.10;68.70
60033;DHT22;45905;50.570;10.428;2023-05-10T01:08:06;15.20;69.60
60033;DHT22;45905;50.570;10.428;2023-05-10T01:10:35;15.00;74.80
60033;DHT22;45905;50.570;10.428;2023-05-10T01:15:31;15.20;71.40
60033;DHT22;45905;50.570;10.428;2023-05-10T01:17:58;15.20;71.10
60033;DHT22;45905;50.570;10.428;2023-05-10T01:20:32;15.10;71.10
60033;DHT22;45905;50.570;10.428;2023-05-10T01:26:13;15.00;71.20
60033;DHT22;45905;50.570;10.428;2023-05-10T01:32:06;14.40;76.00
60033;DHT22;45905;50.570;10.428;2023-05-10T01:35:19;14.20;77.10
60033;DHT22;45905;50.570;10.428;2023-05-10T01:44:05;14.50;76.30
60033;DHT22;45905;50.570;10.428;2023-05-10T01:46:53;14.50;75.40
60033;DHT22;45905;50.570;10.428;2023-05-10T01:49:32;14.10;75.90
60033;DHT22;45905;50.570;10.428;2023-05-10T01:52:10;14.50;75.30
60033;DHT22;45905;50.570;10.428;2023-05-10T01:54:44;14.40;77.40
60033;DHT22;45905;50.570;10.428;2023-05-10T01:57:36;14.70;75.60
60033;DHT22;45905;50.570;10.428;2023-05-10T02:00:07;14.50;75.50
60033;DHT22;45905;50.570;10.428;2023-05-10T02:02:45;14.40;76.60
60033;DHT22;45905;50.570;10.428;2023-05-10T02:05:16;14.40;76.90
60033;DHT22;45905;50.570;10.428;2023-05-10T02:07:44;14.80;78.00
60033;DHT22;45905;50.570;10.428;2023-05-10T02:10:13;14.70;78.30
60033;DHT22;45905;50.570;10.428;2023-05-10T02:12:44;14.40;78.40
60033;DHT22;45905;50.570;10.428;2023-05-10T02:15:22;14.30;79.50
60033;DHT22;45905;50.570;10.428;2023-05-10T02:17:54;14.40;79.60
60033;DHT22;45905;50.570;10.428;2023-05-10T02:20:24;18.10;83.50
60033;DHT22;45905;50.570;10.428;2023-05-10T02:22:55;14.30;79.20
60033;DHT22;45905;50.570;10.428;2023-05-10T02:25:25;13.90;79.40
60033;DHT22;45905;50.570;10.428;2023-05-10T02:27:55;14.00;80.60
60033;DHT22;45905;50.570;10.428;2023-05-10T02:30:24;13.90;82.00
60033;DHT22;45905;50.570;10.428;2023-05-10T02:32:52;14.40;83.80
60033;DHT22;45905;50.570;10.428;2023-05-10T02:35:20;14.40;83.20
60033;DHT22;45905;50.570;10.428;2023-05-10T02:37:50;14.10;80.50
60033;DHT22;45905;50.570;10.428;2023-05-10T02:40:19;14.00;81.60
60033;DHT22;45905;50.570;10.428;2023-05-10T02:42:50;14.10;81.70
60033;DHT22;45905;50.570;10.428;2023-05-10T02:45:24;14.00;82.20
60033;DHT22;45905;50.570;10.428;2023-05-10T02:47:55;14.00;83.80
60033;DHT22;45905;50.570;10.428;2023-05-10T02:50:27;13.80;84.70
60033;DHT22;45905;50.570;10.428;2023-05-10T02:53:00;13.90;85.30
60033;DHT22;45905;50.570;10.428;2023-05-10T02:55:37;13.80;84.80
60033;DHT22;45905;50.570;10.428;2023-05-10T02:58:07;13.90;84.80
60033;DHT22;45905;50.570;10.428;2023-05-10T03:00:34;14.30;84.80
60033;DHT22;45905;50.570;10.428;2023-05-10T03:05:30;13.50;84.30
60033;DHT22;45905;50.570;10.428;2023-05-10T03:08:00;13.90;85.40
60033;DHT22;45905;50.570;10.428;2023-05-10T03:10:32;16.50;86.40
60033;DHT22;45905;50.570;10.428;2023-05-10T03:16:12;14.00;87.60
60033;DHT22;45905;50.570;10.428;2023-05-10T03:18:54;13.50;85.30
60033;DHT22;45905;50.570;10.428;2023-05-10T03:21:29;13.70;87.00
60033;DHT22;45905;50.570;10.428;2023-05-10T03:24:02;13.60;86.60
60033;DHT22;45905;50.570;10.428;2023-05-10T03:26:35;13.80;88.40
60033;DHT22;45905;50.570;10.428;2023-05-10T03:29:11;14.10;87.00
60033;DHT22;45905;50.570;10.428;2023-05-10T03:31:41;13.80;90.10
60033;DHT22;45905;50.570;10.428;2023-05-10T03:34:08;13.70;91.10
60033;DHT22;45905;50.570;10.428;2023-05-10T03:36:35;13.60;91.00
60033;DHT22;45905;50.570;10.428;2023-05-10T03:39:03;13.90;90.70
60033;DHT22;45905;50.570;10.428;2023-05-10T03:41:30;13.30;90.80
60033;DHT22;45905;50.570;10.428;2023-05-10T03:43:57;14.00;91.30
60033;DHT22;45905;50.570;10.428;2023-05-10T03:46:24;13.60;91.00
60033;DHT22;45905;50.570;10.428;2023-05-10T03:48:52;13.60;92.40
60033;DHT22;45905;50.570;10.428;2023-05-10T03:51:19;13.60;90.60
60033;DHT22;45905;50.570;10.428;2023-05-10T03:53:47;13.90;90.90
60033;DHT22;45905;50.570;10.428;2023-05-10T03:56:15;13.60;90.30
60033;DHT22;45905;50.570;10.428;2023-05-10T03:58:42;13.40;90.40
60033;DHT22;45905;50.570;10.428;2023-05-10T04:03:37;13.40;90.90
60033;DHT22;45905;50.570;10.428;2023-05-10T04:06:05;13.80;90.90
60033;DHT22;45905;50.570;10.428;2023-05-10T04:08:32;13.60;90.70
60033;DHT22;45905;50.570;10.428;2023-05-10T04:11:07;13.60;90.40
60033;DHT22;45905;50.570;10.428;2023-05-10T04:13:35;13.60;91.00
60033;DHT22;45905;50.570;10.428;2023-05-10T04:16:03;13.70;90.40
60033;DHT22;45905;50.570;10.428;2023-05-10T04:23:27;13.60;91.30
60033;DHT22;45905;50.570;10.428;2023-05-10T04:26:01;13.70;91.00
60033;DHT22;45905;50.570;10.428;2023-05-10T04:28:28;13.80;91.60
60033;DHT22;45905;50.570;10.428;2023-05-10T04:31:07;14.00;92.40
60033;DHT22;45905;50.570;10.428;2023-05-10T04:33:35;13.60;92.50
60033;DHT22;45905;50.570;10.428;2023-05-10T04:36:03;13.60;92.90
60033;DHT22;45905;50.570;10.428;2023-05-10T04:38:31;13.30;92.80
60033;DHT22;45905;50.570;10.428;2023-05-10T04:41:08;14.10;93.40
60033;DHT22;45905;50.570;10.428;2023-05-10T04:43:36;14.10;93.40
60033;DHT22;45905;50.570;10.428;2023-05-10T04:46:05;13.80;92.80
60033;DHT22;45905;50.570;10.428;2023-05-10T04:48:34;13.40;93.30
60033;DHT22;45905;50.570;10.428;2023-05-10T04:51:01;13.80;93.10
60033;DHT22;45905;50.570;10.428;2023-05-10T04:53:30;14.10;95.50
60033;DHT22;45905;50.570;10.428;2023-05-10T04:55:57;14.10;95.50
60033;DHT22;45905;50.570;10.428;2023-05-10T05:03:20;13.80;94.60
60033;DHT22;45905;50.570;10.428;2023-05-10T05:13:12;14.30;95.30
60033;DHT22;45905;50.570;10.428;2023-05-10T05:20:35;13.90;95.90
60033;DHT22;45905;50.570;10.428;2023-05-10T05:23:02;14.20;95.90
60033;DHT22;45905;50.570;10.428;2023-05-10T05:25:29;14.00;95.90
60033;DHT22;45905;50.570;10.428;2023-05-10T05:27:56;13.80;96.90
60033;DHT22;45905;50.570;10.428;2023-05-10T05:30:23;13.50;96.90
60033;DHT22;45905;50.570;10.428;2023-05-10T05:32:50;14.10;97.00
60033;DHT22;45905;50.570;10.428;2023-05-10T05:37:45;14.20;96.20
60033;DHT22;45905;50.570;10.428;2023-05-10T05:40:13;15.50;96.70
60033;DHT22;45905;50.570;10.428;2023-05-10T05:45:08;13.90;95.70
60033;DHT22;45905;50.570;10.428;2023-05-10T05:47:40;13.90;95.90
60033;DHT22;45905;50.570;10.428;2023-05-10T05:50:07;14.20;96.60
60033;DHT22;45905;50.570;10.428;2023-05-10T05:55:03;13.90;96.40
60033;DHT22;45905;50.570;10.428;2023-05-10T05:57:30;13.90;96.20
60033;DHT22;45905;50.570;10.428;2023-05-10T05:59:57;14.20;97.30
60033;DHT22;45905;50.570;10.428;2023-05-10T06:02:24;14.20;96.90
60033;DHT22;45905;50.570;10.428;2023-05-10T06:07:19;13.80;97.50
60033;DHT22;45905;50.570;10.428;2023-05-10T06:09:47;13.40;97.80
60033;DHT22;45905;50.570;10.428;2023-05-10T06:12:14;13.70;98.10
60033;DHT22;45905;50.570;10.428;2023-05-10T06:14:41;14.20;98.90
60033;DHT22;45905;50.570;10.428;2023-05-10T06:17:08;13.60;98.80
60033;DHT22;45905;50.570;10.428;2023-05-10T06:19:35;13.60;99.00
60033;DHT22;45905;50.570;10.428;2023-05-10T06:22:03;13.50;99.60
60033;DHT22;45905;50.570;10.428;2023-05-10T06:24:30;13.60;98.80
60033;DHT22;45905;50.570;10.428;2023-05-10T06:26:57;13.70;98.60
60033;DHT22;45905;50.570;10.428;2023-05-10T06:29:26;13.70;98.40
60033;DHT22;45905;50.570;10.428;2023-05-10T06:31:53;14.10;99.40
60033;DHT22;45905;50.570;10.428;2023-05-10T06:36:48;13.80;99.30
60033;DHT22;45905;50.570;10.428;2023-05-10T06:39:16;13.80;99.70
60033;DHT22;45905;50.570;10.428;2023-05-10T06:44:10;13.90;99.90
60033;DHT22;45905;50.570;10.428;2023-05-10T06:46:38;13.80;99.90
60033;DHT22;45905;50.570;10.428;2023-05-10T06:54:00;14.40;99.90
60033;DHT22;45905;50.570;10.428;2023-05-10T06:58:56;14.20;99.90
60033;DHT22;45905;50.570;10.428;2023-05-10T07:03:50;13.90;99.70
60033;DHT22;45905;50.570;10.428;2023-05-10T07:06:17;14.40;99.80
60033;DHT22;45905;50.570;10.428;2023-05-10T07:08:59;14.30;99.80
60033;DHT22;45905;50.570;10.428;2023-05-10T07:16:22;14.40;99.50
60033;DHT22;45905;50.570;10.428;2023-05-10T07:18:49;14.20;99.00
60033;DHT22;45905;50.570;10.428;2023-05-10T07:23:44;14.00;99.60
60033;DHT22;45905;50.570;10.428;2023-05-10T07:26:12;14.30;98.40
60033;DHT22;45905;50.570;10.428;2023-05-10T07:28:39;14.20;98.50
60033;DHT22;45905;50.570;10.428;2023-05-10T07:33:33;14.20;99.10
60033;DHT22;45905;50.570;10.428;2023-05-10T07:36:01;14.10;99.40
60033;DHT22;45905;50.570;10.428;2023-05-10T07:38:28;14.50;99.20
60033;DHT22;45905;50.570;10.428;2023-05-10T07:40:55;14.10;99.00
60033;DHT22;45905;50.570;10.428;2023-05-10T07:43:22;14.60;99.60
60033;DHT22;45905;50.570;10.428;2023-05-10T07:48:19;14.80;99.50
60033;DHT22;45905;50.570;10.428;2023-05-10T07:50:46;14.60;98.40
60033;DHT22;45905;50.570;10.428;2023-05-10T07:53:14;14.30;98.70
60033;DHT22;45905;50.570;10.428;2023-05-10T07:55:41;14.30;99.20
60033;DHT22;45905;50.570;10.428;2023-05-10T07:58:08;15.10;98.80
60033;DHT22;45905;50.570;10.428;2023-05-10T08:00:35;15.10;99.20
60033;DHT22;45905;50.570;10.428;2023-05-10T08:03:06;15.00;98.30
60033;DHT22;45905;50.570;10.428;2023-05-10T08:12:56;14.90;98.30
60033;DHT22;45905;50.570;10.428;2023-05-10T08:15:25;15.00;98.90
60033;DHT22;45905;50.570;10.428;2023-05-10T08:17:52;14.80;98.80
60033;DHT22;45905;50.570;10.428;2023-05-10T08:20:19;14.80;99.70
60033;DHT22;45905;50.570;10.428;2023-05-10T08:22:47;14.80;97.80
60033;DHT22;45905;50.570;10.428;2023-05-10T08:25:17;14.90;97.60
60033;DHT22;45905;50.570;10.428;2023-05-10T08:27:45;14.90;97.70
60033;DHT22;45905;50.570;10.428;2023-05-10T08:30:12;15.20;98.20
60033;DHT22;45905;50.570;10.428;2023-05-10T08:32:39;15.00;97.10
60033;DHT22;45905;50.570;10.428;2023-05-10T08:35:07;15.10;96.40
60033;DHT22;45905;50.570;10.428;2023-05-10T08:40:01;15.60;95.90
60033;DHT22;45905;50.570;10.428;2023-05-10T08:42:30;15.30;95.50
60033;DHT22;45905;50.570;10.428;2023-05-10T08:45:02;14.80;96.50
60033;DHT22;45905;50.570;10.428;2023-05-10T08:52:27;15.50;93.70
60033;DHT22;45905;50.570;10.428;2023-05-10T08:54:56;15.80;94.90
60033;DHT22;45905;50.570;10.428;2023-05-10T08:57:24;15.60;95.80
60033;DHT22;45905;50.570;10.428;2023-05-10T09:07:16;16.50;94.80
60033;DHT22;45905;50.570;10.428;2023-05-10T09:09:44;15.70;94.40
60033;DHT22;45905;50.570;10.428;2023-05-10T09:12:13;15.80;94.00
60033;DHT22;45905;50.570;10.428;2023-05-10T09:14:43;15.90;93.40
60033;DHT22;45905;50.570;10.428;2023-05-10T09:17:11;15.80;94.30
60033;DHT22;45905;50.570;10.428;2023-05-10T09:19:39;15.90;93.40
60033;DHT22;45905;50.570;10.428;2023-05-10T09:22:06;16.20;93.50
60033;DHT22;45905;50.570;10.428;2023-05-10T09:24:33;16.70;93.70
60033;DHT22;45905;50.570;10.428;2023-05-10T09:27:01;16.10;93.90
60033;DHT22;45905;50.570;10.428;2023-05-10T09:29:42;16.20;93.00
60033;DHT22;45905;50.570;10.428;2023-05-10T09:32:10;16.40;92.60
60033;DHT22;45905;50.570;10.428;2023-05-10T09:34:39;16.30;92.90
60033;DHT22;45905;50.570;10.428;2023-05-10T09:37:07;16.20;92.50
60033;DHT22;45905;50.570;10.428;2023-05-10T09:39:36;16.10;92.70
60033;DHT22;45905;50.570;10.428;2023-05-10T09:42:06;16.50;92.70
60033;DHT22;45905;50.570;10.428;2023-05-10T09:44:35;16.40;92.40
60033;DHT22;45905;50.570;10.428;2023-05-10T09:47:04;16.50;92.40
60033;DHT22;45905;50.570;10.428;2023-05-10T09:49:32;16.70;92.10
60033;DHT22;45905;50.570;10.428;2023-05-10T09:52:07;16.50;91.50
60033;DHT22;45905;50.570;10.428;2023-05-10T09:54:34;16.80;90.80
60033;DHT22;45905;50.570;10.428;2023-05-10T09:57:02;16.90;90.80
60033;DHT22;45905;50.570;10.428;2023-05-10T09:59:32;16.50;90.00
60033;DHT22;45905;50.570;10.428;2023-05-10T10:02:01;16.80;90.50
60033;DHT22;45905;50.570;10.428;2023-05-10T10:04:29;16.60;90.30
60033;DHT22;45905;50.570;10.428;2023-05-10T10:07:04;16.70;90.00
60033;DHT22;45905;50.570;10.428;2023-05-10T10:09:32;16.70;89.70
60033;DHT22;45905;50.570;10.428;2023-05-10T10:12:01;16.70;89.90
60033;DHT22;45905;50.570;10.428;2023-05-10T10:14:29;16.70;90.20
60033;DHT22;45905;50.570;10.428;2023-05-10T10:16:57;16.60;89.90
60033;DHT22;45905;50.570;10.428;2023-05-10T10:19:35;16.70;90.00
60033;DHT22;45905;50.570;10.428;2023-05-10T10:22:03;16.70;89.70
60033;DHT22;45905;50.570;10.428;2023-05-10T10:24:31;16.70;90.00
60033;DHT22;45905;50.570;10.428;2023-05-10T10:33:27;15.30;88.10
60033;DHT22;45905;50.570;10.428;2023-05-10T10:36:03;16.60;88.80
60033;DHT22;45905;50.570;10.428;2023-05-10T10:38:54;16.60;89.60
60033;DHT22;45905;50.570;10.428;2023-05-10T10:52:34;17.10;93.20
60033;DHT22;45905;50.570;10.428;2023-05-10T10:55:19;16.20;93.10
60033;DHT22;45905;50.570;10.428;2023-05-10T10:57:56;16.30;93.20
60033;DHT22;45905;50.570;10.428;2023-05-10T11:00:35;16.50;93.60
60033;DHT22;45905;50.570;10.428;2023-05-10T11:05:43;16.60;93.50
60033;DHT22;45905;50.570;10.428;2023-05-10T11:08:29;16.50;93.10
60033;DHT22;45905;50.570;10.428;2023-05-10T11:13:44;16.60;93.30
60033;DHT22;45905;50.570;10.428;2023-05-10T11:16:22;16.50;93.50
60033;DHT22;45905;50.570;10.428;2023-05-10T11:19:06;16.40;93.60
60033;DHT22;45905;50.570;10.428;2023-05-10T11:24:30;16.40;94.10
60033;DHT22;45905;50.570;10.428;2023-05-10T11:26:57;16.60;94.60
60033;DHT22;45905;50.570;10.428;2023-05-10T11:29:24;16.70;94.00
60033;DHT22;45905;50.570;10.428;2023-05-10T11:31:57;16.50;94.00
60033;DHT22;45905;50.570;10.428;2023-05-10T11:34:30;16.50;94.20
60033;DHT22;45905;50.570;10.428;2023-05-10T11:37:01;16.50;94.10
60033;DHT22;45905;50.570;10.428;2023-05-10T11:39:29;16.60;94.50
60033;DHT22;45905;50.570;10.428;2023-05-10T11:41:58;16.20;94.50
60033;DHT22;45905;50.570;10.428;2023-05-10T11:44:30;16.50;95.20
60033;DHT22;45905;50.570;10.428;2023-05-10T11:46:59;16.70;95.70
60033;DHT22;45905;50.570;10.428;2023-05-10T11:49:27;16.50;96.00
60033;DHT22;45905;50.570;10.428;2023-05-10T11:52:07;16.20;95.90
60033;DHT22;45905;50.570;10.428;2023-05-10T11:54:35;16.40;96.60
60033;DHT22;45905;50.570;10.428;2023-05-10T11:57:03;16.50;96.60
60033;DHT22;45905;50.570;10.428;2023-05-10T11:59:30;16.50;96.80
60033;DHT22;45905;50.570;10.428;2023-05-10T12:01:58;16.60;96.90
60033;DHT22;45905;50.570;10.428;2023-05-10T12:04:25;16.60;96.80
60033;DHT22;45905;50.570;10.428;2023-05-10T12:06:54;16.50;97.00
60033;DHT22;45905;50.570;10.428;2023-05-10T12:09:22;16.40;96.80
60033;DHT22;45905;50.570;10.428;2023-05-10T12:11:55;16.70;97.30
60033;DHT22;45905;50.570;10.428;2023-05-10T12:14:23;16.50;96.80
60033;DHT22;45905;50.570;10.428;2023-05-10T12:16:51;16.30;96.70
60033;DHT22;45905;50.570;10.428;2023-05-10T12:19:19;16.60;97.20
60033;DHT22;45905;50.570;10.428;2023-05-10T12:21:49;16.50;97.00
60033;DHT22;45905;50.570;10.428;2023-05-10T12:24:16;16.70;97.40
60033;DHT22;45905;50.570;10.428;2023-05-10T12:26:47;16.80;97.50
60033;DHT22;45905;50.570;10.428;2023-05-10T12:29:16;16.70;97.20
60033;DHT22;45905;50.570;10.428;2023-05-10T12:31:59;16.70;97.40
60033;DHT22;45905;50.570;10.428;2023-05-10T12:34:30;16.80;97.50
60033;DHT22;45905;50.570;10.428;2023-05-10T12:37:00;16.80;97.30
60033;DHT22;45905;50.570;10.428;2023-05-10T12:39:40;16.40;97.30
60033;DHT22;45905;50.570;10.428;2023-05-10T12:42:09;16.70;97.70
60033;DHT22;45905;50.570;10.428;2023-05-10T12:44:36;16.80;97.80
60033;DHT22;45905;50.570;10.428;2023-05-10T12:47:04;16.90;97.90
60033;DHT22;45905;50.570;10.428;2023-05-10T12:49:31;16.90;98.30
60033;DHT22;45905;50.570;10.428;2023-05-10T12:51:58;16.80;98.30
60033;DHT22;45905;50.570;10.428;2023-05-10T12:54:26;16.70;98.30
60033;DHT22;45905;50.570;10.428;2023-05-10T12:56:53;16.60;98.70
60033;DHT22;45905;50.570;10.428;2023-05-10T12:59:20;16.60;99.10
60033;DHT22;45905;50.570;10.428;2023-05-10T13:01:47;16.60;99.50
60033;DHT22;45905;50.570;10.428;2023-05-10T13:04:14;16.50;99.50
60033;DHT22;45905;50.570;10.428;2023-05-10T13:06:41;16.40;99.50
60033;DHT22;45905;50.570;10.428;2023-05-10T13:09:08;16.30;99.20
60033;DHT22;45905;50.570;10.428;2023-05-10T13:11:35;16.40;99.20
60033;DHT22;45905;50.570;10.428;2023-05-10T13:14:03;16.10;98.80
60033;DHT22;45905;50.570;10.428;2023-05-10T13:16:30;16.30;98.70
60033;DHT22;45905;50.570;10.428;2023-05-10T13:18:58;16.30;98.50
60033;DHT22;45905;50.570;10.428;2023-05-10T13:21:25;16.40;98.40
60033;DHT22;45905;50.570;10.428;2023-05-10T13:23:53;16.30;98.20
60033;DHT22;45905;50.570;10.428;2023-05-10T13:26:20;16.50;98.10
60033;DHT22;45905;50.570;10.428;2023-05-10T13:28:48;16.30;98.00
60033;DHT22;45905;50.570;10.428;2023-05-10T13:31:16;16.40;98.20
60033;DHT22;45905;50.570;10.428;2023-05-10T13:33:43;15.80;97.50
60033;DHT22;45905;50.570;10.428;2023-05-10T13:36:10;16.60;98.70
60033;DHT22;45905;50.570;10.428;2023-05-10T13:38:37;16.50;98.30
60033;DHT22;45905;50.570;10.428;2023-05-10T13:41:04;16.60;98.30
60033;DHT22;45905;50.570;10.428;2023-05-10T13:43:31;16.60;98.10
60033;DHT22;45905;50.570;10.428;2023-05-10T13:45:59;16.50;97.90
60033;DHT22;45905;50.570;10.428;2023-05-10T13:48:26;16.60;97.80
60033;DHT22;45905;50.570;10.428;2023-05-10T13:50:54;16.50;97.60
60033;DHT22;45905;50.570;10.428;2023-05-10T13:53:21;17.10;97.70
60033;DHT22;45905;50.570;10.428;2023-05-10T13:55:49;16.60;97.50
60033;DHT22;45905;50.570;10.428;2023-05-10T13:58:16;16.80;97.30
60033;DHT22;45905;50.570;10.428;2023-05-10T14:00:43;16.70;97.30
60033;DHT22;45905;50.570;10.428;2023-05-10T14:03:10;16.90;97.30
60033;DHT22;45905;50.570;10.428;2023-05-10T14:05:38;16.70;97.20
60033;DHT22;45905;50.570;10.428;2023-05-10T14:08:05;16.90;97.10
60033;DHT22;45905;50.570;10.428;2023-05-10T14:10:32;16.60;96.80
60033;DHT22;45905;50.570;10.428;2023-05-10T14:13:00;16.40;96.70
60033;DHT22;45905;50.570;10.428;2023-05-10T14:15:27;16.50;97.00
60033;DHT22;45905;50.570;10.428;2023-05-10T14:17:54;16.20;96.90
60033;DHT22;45905;50.570;10.428;2023-05-10T14:20:22;16.50;97.00
60033;DHT22;45905;50.570;10.428;2023-05-10T14:22:49;16.50;97.10
60033;DHT22;45905;50.570;10.428;2023-05-10T14:25:16;16.50;97.00
60033;DHT22;45905;50.570;10.428;2023-05-10T14:27:44;16.50;96.90
60033;DHT22;45905;50.570;10.428;2023-05-10T14:30:12;16.50;97.10
60033;DHT22;45905;50.570;10.428;2023-05-10T14:32:39;16.70;96.80
60033;DHT22;45905;50.570;10.428;2023-05-10T14:35:06;16.20;97.00
60033;DHT22;45905;50.570;10.428;2023-05-10T14:37:36;16.10;96.90
60033;DHT22;45905;50.570;10.428;2023-05-10T14:40:04;16.00;96.80
60033;DHT22;45905;50.570;10.428;2023-05-10T14:42:33;15.90;96.70
60033;DHT22;45905;50.570;10.428;2023-05-10T14:45:00;16.30;96.90
60033;DHT22;45905;50.570;10.428;2023-05-10T14:47:27;16.10;96.80
60033;DHT22;45905;50.570;10.428;2023-05-10T14:49:54;16.00;97.20
60033;DHT22;45905;50.570;10.428;2023-05-10T14:52:21;16.00;97.50
60033;DHT22;45905;50.570;10.428;2023-05-10T14:54:48;15.80;97.00
60033;DHT22;45905;50.570;10.428;2023-05-10T14:57:15;16.00;97.20
60033;DHT22;45905;50.570;10.428;2023-05-10T14:59:43;15.70;96.80
60033;DHT22;45905;50.570;10.428;2023-05-10T15:04:39;16.00;97.70
60033;DHT22;45905;50.570;10.428;2023-05-10T15:07:06;16.10;96.70
60033;DHT22;45905;50.570;10.428;2023-05-10T15:12:01;15.60;98.40
60033;DHT22;45905;50.570;10.428;2023-05-10T15:16:57;15.90;97.70
60033;DHT22;45905;50.570;10.428;2023-05-10T15:24:19;16.30;98.40
60033;DHT22;45905;50.570;10.428;2023-05-10T15:29:13;16.20;99.40
60033;DHT22;45905;50.570;10.428;2023-05-10T15:31:50;16.30;98.20
60033;DHT22;45905;50.570;10.428;2023-05-10T15:34:18;16.00;98.40
60033;DHT22;45905;50.570;10.428;2023-05-10T15:36:46;15.90;99.90
60033;DHT22;45905;50.570;10.428;2023-05-10T15:39:13;16.30;98.30
60033;DHT22;45905;50.570;10.428;2023-05-10T15:41:40;16.30;98.60
60033;DHT22;45905;50.570;10.428;2023-05-10T15:51:32;16.40;99.90
60033;DHT22;45905;50.570;10.428;2023-05-10T16:01:30;16.60;97.50
60033;DHT22;45905;50.570;10.428;2023-05-10T16:11:21;16.70;99.90
60033;DHT22;45905;50.570;10.428;2023-05-10T16:28:34;16.00;97.70
60033;DHT22;45905;50.570;10.428;2023-05-10T16:33:29;16.10;97.30
60033;DHT22;45905;50.570;10.428;2023-05-10T16:35:56;15.90;96.80
60033;DHT22;45905;50.570;10.428;2023-05-10T16:38:23;15.80;98.10
60033;DHT22;45905;50.570;10.428;2023-05-10T16:43:18;16.40;99.90
60033;DHT22;45905;50.570;10.428;2023-05-10T16:45:45;15.60;99.70
60033;DHT22;45905;50.570;10.428;2023-05-10T16:48:13;16.60;98.20
60033;DHT22;45905;50.570;10.428;2023-05-10T16:50:42;16.00;96.60
60033;DHT22;45905;50.570;10.428;2023-05-10T16:55:37;15.60;99.90
60033;DHT22;45905;50.570;10.428;2023-05-10T16:58:05;15.60;99.90
60033;DHT22;45905;50.570;10.428;2023-05-10T17:05:28;15.90;98.00
60033;DHT22;45905;50.570;10.428;2023-05-10T17:20:14;16.10;97.50
60033;DHT22;45905;50.570;10.428;2023-05-10T17:27:37;15.60;99.20
60033;DHT22;45905;50.570;10.428;2023-05-10T17:30:05;15.60;96.50
60033;DHT22;45905;50.570;10.428;2023-05-10T17:37:29;15.00;99.70
60033;DHT22;45905;50.570;10.428;2023-05-10T17:39:59;15.20;96.90
60033;DHT22;45905;50.570;10.428;2023-05-10T17:44:54;15.80;99.90
60033;DHT22;45905;50.570;10.428;2023-05-10T17:59:39;14.90;98.70
60033;DHT22;45905;50.570;10.428;2023-05-10T18:07:01;15.10;96.40
60033;DHT22;45905;50.570;10.428;2023-05-10T18:09:28;15.60;99.70
60033;DHT22;45905;50.570;10.428;2023-05-10T18:17:07;15.50;98.80
60033;DHT22;45905;50.570;10.428;2023-05-10T18:19:35;15.50;98.40
60033;DHT22;45905;50.570;10.428;2023-05-10T18:24:32;15.10;96.70
60033;DHT22;45905;50.570;10.428;2023-05-10T18:27:02;15.50;97.10
60033;DHT22;45905;50.570;10.428;2023-05-10T18:29:29;15.20;96.80
60033;DHT22;45905;50.570;10.428;2023-05-10T18:34:24;15.50;97.40
60033;DHT22;45905;50.570;10.428;2023-05-10T18:36:51;14.90;97.20
60033;DHT22;45905;50.570;10.428;2023-05-10T18:39:18;15.50;99.00
60033;DHT22;45905;50.570;10.428;2023-05-10T18:41:46;15.00;96.70
60033;DHT22;45905;50.570;10.428;2023-05-10T18:46:41;14.50;99.40
60033;DHT22;45905;50.570;10.428;2023-05-10T18:51:35;15.00;97.30
60033;DHT22;45905;50.570;10.428;2023-05-10T18:56:30;14.90;96.70
60033;DHT22;45905;50.570;10.428;2023-05-10T19:01:25;14.90;96.70
60033;DHT22;45905;50.570;10.428;2023-05-10T19:03:52;15.10;98.70
60033;DHT22;45905;50.570;10.428;2023-05-10T19:06:19;15.20;99.90
60033;DHT22;45905;50.570;10.428;2023-05-10T19:08:46;14.60;99.80
60033;DHT22;45905;50.570;10.428;2023-05-10T19:11:14;15.20;99.90
60033;DHT22;45905;50.570;10.428;2023-05-10T19:16:12;14.70;97.00
60033;DHT22;45905;50.570;10.428;2023-05-10T19:18:45;14.70;96.80
60033;DHT22;45905;50.570;10.428;2023-05-10T19:21:12;15.10;97.00
60033;DHT22;45905;50.570;10.428;2023-05-10T19:23:41;14.90;99.90
60033;DHT22;45905;50.570;10.428;2023-05-10T19:26:09;14.60;97.40
60033;DHT22;45905;50.570;10.428;2023-05-10T19:28:37;14.20;98.00
60033;DHT22;45905;50.570;10.428;2023-05-10T19:33:32;14.10;97.80
60033;DHT22;45905;50.570;10.428;2023-05-10T19:35:59;14.60;98.60
60033;DHT22;45905;50.570;10.428;2023-05-10T19:38:27;14.30;97.20
60033;DHT22;45905;50.570;10.428;2023-05-10T19:40:55;14.40;97.80
60033;DHT22;45905;50.570;10.428;2023-05-10T19:43:30;14.40;96.90
60033;DHT22;45905;50.570;10.428;2023-05-10T19:46:01;14.70;97.10
60033;DHT22;45905;50.570;10.428;2023-05-10T19:48:29;14.00;98.20
60033;DHT22;45905;50.570;10.428;2023-05-10T19:51:04;14.60;97.10
60033;DHT22;45905;50.570;10.428;2023-05-10T19:56:04;14.20;97.40
60033;DHT22;45905;50.570;10.428;2023-05-10T19:58:32;14.20;98.20
60033;DHT22;45905;50.570;10.428;2023-05-10T20:03:27;14.10;97.60
60033;DHT22;45905;50.570;10.428;2023-05-10T20:13:17;14.00;99.90
60033;DHT22;45905;50.570;10.428;2023-05-10T20:15:45;13.80;98.20
60033;DHT22;45905;50.570;10.428;2023-05-10T20:18:12;13.90;97.90
60033;DHT22;45905;50.570;10.428;2023-05-10T20:20:39;13.90;98.10
60033;DHT22;45905;50.570;10.428;2023-05-10T20:23:06;14.30;99.50
60033;DHT22;45905;50.570;10.428;2023-05-10T20:25:34;13.90;98.50
60033;DHT22;45905;50.570;10.428;2023-05-10T20:28:01;13.90;98.20